Time;durP1;ratioP1;P1;durP2;ratioP2;P2;SDS_P1;SDS_P2;PMS_P1;PMS_P2;Temp;Humidity;BMP_temperature;BMP_pressure;BME280_temperature;BME280_humidity;BME280_pressure;Samples;Min_cycle;Max_cycle;Signal;HPM_P1;HPM_P2
2022/08/18 00:04:49;;;;;;;25.50;17.40;;;;;;;18.06;96.91;100964.69;10474820;28;20052;-80
2022/08/18 00:09:57;;;;;;;28.02;16.73;;;;;;;18.06;96.79;100961.13;10480965;28;20064;-80
2022/08/18 00:15:03;;;;;;;26.73;16.10;;;;;;;18.10;97.16;100958.44;10477018;28;20045;-80
2022/08/18 00:20:08;;;;;;;27.38;16.15;;;;;;;18.05;97.13;100956.75;10483212;28;20056;-80
2022/08/18 00:25:12;;;;;;;29.13;16.25;;;;;;;18.09;96.97;100959.34;10482865;28;20029;-80
2022/08/18 00:30:18;;;;;;;27.73;15.35;;;;;;;18.09;96.90;100956.72;10489856;28;20053;-77
2022/08/18 00:35:26;;;;;;;34.42;15.50;;;;;;;18.15;97.25;100961.94;10486780;28;20088;-79
2022/08/18 00:40:35;;;;;;;26.70;14.50;;;;;;;18.14;96.99;100965.47;10481958;28;20159;-79
2022/08/18 00:45:41;;;;;;;20.88;14.93;;;;;;;18.23;97.42;100977.75;10491730;28;20072;-80
2022/08/18 00:50:56;;;;;;;28.13;14.95;;;;;;;18.27;97.35;100974.16;10483429;28;20033;-80
2022/08/18 00:56:03;;;;;;;31.42;15.18;;;;;;;18.28;96.80;100975.91;10487927;28;20060;-80
2022/08/18 01:01:07;;;;;;;27.58;15.32;;;;;;;18.23;96.83;100975.09;10481057;28;20037;-79
2022/08/18 01:06:16;;;;;;;28.63;14.85;;;;;;;18.28;97.01;100972.38;10477954;28;20049;-79
2022/08/18 01:11:17;;;;;;;30.83;14.90;;;;;;;18.24;96.95;100968.00;10482104;28;20045;-79
2022/08/18 01:22:07;;;;;;;29.77;14.45;;;;;;;18.23;96.92;100975.09;10478596;28;20033;-80
2022/08/18 01:27:11;;;;;;;27.88;14.25;;;;;;;18.21;96.79;100974.25;10482195;28;20045;-80
2022/08/18 01:32:19;;;;;;;37.45;14.32;;;;;;;18.18;96.91;100971.63;10475346;28;20409;-79
2022/08/18 01:37:22;;;;;;;28.48;15.65;;;;;;;18.15;97.03;100971.63;10476208;28;20057;-79
2022/08/18 01:42:24;;;;;;;27.08;14.05;;;;;;;18.13;97.21;100981.38;10476697;28;20045;-79
2022/08/18 01:47:27;;;;;;;33.25;15.07;;;;;;;18.18;97.24;100975.16;10472853;28;20420;-80
2022/08/18 01:52:32;;;;;;;26.52;13.73;;;;;;;18.18;97.42;100971.63;10475094;28;20045;-79
2022/08/18 01:57:43;;;;;;;27.65;13.80;;;;;;;18.17;97.50;100962.78;10483955;28;20049;-79
2022/08/18 02:02:48;;;;;;;28.70;14.02;;;;;;;18.19;97.44;100960.09;10485553;28;20075;-80
2022/08/18 02:08:03;;;;;;;33.67;15.23;;;;;;;18.16;97.26;100939.81;10473967;28;20041;-80
2022/08/18 02:13:05;;;;;;;30.23;14.25;;;;;;;18.11;97.23;100939.00;10479269;28;20476;-79
2022/08/18 02:18:16;;;;;;;30.63;14.98;;;;;;;18.10;97.43;100939.88;10480349;28;20108;-79
2022/08/18 02:23:40;;;;;;;33.50;16.63;;;;;;;18.10;97.46;100924.00;10477058;28;20081;-79
2022/08/18 02:28:53;;;;;;;34.33;17.33;;;;;;;18.09;97.61;100931.97;10472816;28;20049;-79
2022/08/18 02:33:55;;;;;;;32.05;19.20;;;;;;;18.02;97.46;100915.28;10473044;28;20044;-80
2022/08/18 02:38:57;;;;;;;30.10;17.90;;;;;;;17.93;97.37;100920.69;10473104;28;20048;-79
2022/08/18 02:44:01;;;;;;;40.33;18.52;;;;;;;17.84;97.65;100918.97;10470587;28;20037;-80
2022/08/18 02:49:04;;;;;;;41.05;19.67;;;;;;;17.90;97.70;100904.81;10473376;28;20056;-80
2022/08/18 02:54:09;;;;;;;36.20;18.40;;;;;;;17.87;97.61;100904.81;10471362;28;20039;-80
2022/08/18 02:59:18;;;;;;;33.80;17.30;;;;;;;17.75;97.52;100919.94;10471592;28;20049;-80
2022/08/18 03:04:25;;;;;;;40.67;16.90;;;;;;;17.72;97.67;100930.56;10475614;28;20059;-80
2022/08/18 03:09:31;;;;;;;26.88;16.15;;;;;;;17.70;97.54;100929.72;10471597;28;20045;-79
2022/08/18 03:14:34;;;;;;;39.58;15.65;;;;;;;17.71;97.78;100934.09;10474249;28;20044;-80
2022/08/18 03:19:37;;;;;;;34.28;16.65;;;;;;;17.64;97.74;100948.31;10476468;28;20513;-80
2022/08/18 03:24:38;;;;;;;37.03;16.80;;;;;;;17.67;98.18;100945.63;10474195;28;20052;-80
2022/08/18 03:29:40;;;;;;;31.60;15.55;;;;;;;17.68;97.88;100947.38;10474020;28;20049;-79
2022/08/18 03:34:42;;;;;;;33.13;16.67;;;;;;;17.61;98.28;100956.25;10458760;28;20135;-79
2022/08/18 03:39:44;;;;;;;37.47;17.75;;;;;;;17.56;98.22;100966.03;10480424;28;20044;-79
2022/08/18 03:44:46;;;;;;;29.83;18.17;;;;;;;17.51;98.15;100965.22;10472341;28;20152;-79
2022/08/18 03:49:47;;;;;;;35.35;17.98;;;;;;;17.53;98.53;100968.72;10488873;28;20036;-79
2022/08/18 03:54:49;;;;;;;33.90;19.48;;;;;;;17.60;98.56;100976.56;10469640;28;20043;-78
2022/08/18 03:59:50;;;;;;;36.45;19.92;;;;;;;17.61;98.94;100982.72;10450498;28;20495;-79
2022/08/18 04:04:52;;;;;;;41.65;19.80;;;;;;;17.66;98.78;100980.94;10479509;28;20040;-78
2022/08/18 04:09:54;;;;;;;38.75;18.45;;;;;;;17.68;98.70;100984.44;10477998;28;20072;-79
2022/08/18 04:14:55;;;;;;;50.53;18.48;;;;;;;17.67;98.88;100988.00;10443996;28;20068;-78
2022/08/18 04:19:57;;;;;;;45.10;17.83;;;;;;;17.72;98.85;100983.53;10452241;28;20112;-79
2022/08/18 04:25:02;;;;;;;33.92;16.85;;;;;;;17.72;98.93;100980.88;10445707;28;20034;-78
2022/08/18 04:30:05;;;;;;;39.05;18.27;;;;;;;17.75;98.90;100980.84;10439735;28;20076;-78
2022/08/18 04:35:07;;;;;;;33.13;15.68;;;;;;;17.74;98.72;100987.03;10438474;28;20060;-79
2022/08/18 04:40:14;;;;;;;37.78;16.25;;;;;;;17.69;98.59;100991.50;10464366;28;20041;-79
2022/08/18 04:45:16;;;;;;;37.88;15.05;;;;;;;17.69;98.99;100990.63;10480022;28;20041;-78
2022/08/18 04:50:18;;;;;;;36.72;14.98;;;;;;;17.67;98.66;100998.59;10482578;28;20049;-78
2022/08/18 04:55:19;;;;;;;37.03;14.88;;;;;;;17.67;98.81;100988.88;10475900;28;20067;-78
2022/08/18 05:00:21;;;;;;;31.30;14.23;;;;;;;17.74;98.71;100994.09;10477739;28;20088;-78
2022/08/18 05:05:23;;;;;;;29.13;13.35;;;;;;;17.72;98.61;101001.19;10473446;28;20112;-79
2022/08/18 05:10:24;;;;;;;33.58;14.77;;;;;;;17.70;98.87;101009.16;10467896;28;20064;-78
2022/08/18 05:15:26;;;;;;;28.75;12.32;;;;;;;17.77;98.65;101005.53;10469029;28;20055;-77
2022/08/18 05:20:28;;;;;;;33.22;11.82;;;;;;;17.79;98.54;101006.44;10471495;28;20079;-78
2022/08/18 05:25:30;;;;;;;28.88;12.82;;;;;;;17.77;98.32;101004.66;10469343;28;20037;-79
2022/08/18 05:30:32;;;;;;;32.90;13.15;;;;;;;17.80;98.25;101000.22;10468198;28;20045;-78
2022/08/18 05:35:40;;;;;;;32.42;13.07;;;;;;;17.90;98.24;101000.19;10468405;28;20104;-79
2022/08/18 05:40:44;;;;;;;28.27;13.05;;;;;;;17.99;98.07;101005.38;10470334;28;20049;-78
2022/08/18 05:45:49;;;;;;;27.85;13.55;;;;;;;18.16;98.07;101016.66;10470107;28;20033;-77
2022/08/18 05:50:51;;;;;;;26.42;12.70;;;;;;;18.12;97.83;101022.00;10467264;28;20071;-78
2022/08/18 06:01:38;;;;;;;30.77;13.57;;;;;;;18.18;97.48;101006.94;10466524;28;20080;-78
2022/08/18 06:06:41;;;;;;;31.70;13.75;;;;;;;18.16;97.48;101006.06;10480831;28;20045;-78
2022/08/18 06:11:49;;;;;;;33.80;15.18;;;;;;;18.29;97.46;101021.84;10466339;28;20514;-77
2022/08/18 06:17:35;;;;;;;28.70;14.82;;;;;;;18.30;97.60;101026.25;10470968;28;20130;-78
2022/08/18 06:22:46;;;;;;;32.17;14.73;;;;;;;18.30;97.44;101020.94;10350148;28;20064;-77
2022/08/18 06:28:14;;;;;;;42.28;16.77;;;;;;;18.38;97.17;101025.25;10459219;28;20053;-77
2022/08/18 06:33:33;;;;;;;34.03;13.95;;;;;;;18.47;97.10;101029.59;10458379;28;20037;-77
2022/08/18 06:38:44;;;;;;;32.78;15.38;;;;;;;18.61;97.23;101032.06;10448687;28;20136;-77
2022/08/18 06:44:07;;;;;;;34.42;15.40;;;;;;;18.70;97.04;101047.84;10454533;28;20037;-78
2022/08/18 06:49:13;;;;;;;37.28;15.25;;;;;;;18.71;96.83;101036.38;10453781;28;20120;-78
2022/08/18 06:54:26;;;;;;;33.47;16.05;;;;;;;18.93;96.77;101037.88;10447327;28;20071;-77
2022/08/18 06:59:33;;;;;;;31.10;15.48;;;;;;;18.94;96.43;101042.31;10449890;28;20049;-78
2022/08/18 07:04:42;;;;;;;36.47;17.15;;;;;;;18.98;96.33;101041.38;10447641;28;20119;-78
2022/08/18 07:09:44;;;;;;;36.10;16.48;;;;;;;19.07;95.92;101057.16;10446849;28;20055;-76
2022/08/18 07:14:58;;;;;;;28.98;15.63;;;;;;;19.09;95.40;101058.00;10447531;28;20109;-77
2022/08/18 07:20:09;;;;;;;27.70;15.65;;;;;;;19.25;95.40;101066.66;10447390;28;20045;-77
2022/08/18 07:25:21;;;;;;;31.83;15.10;;;;;;;19.21;94.84;101075.53;10441638;28;20072;-76
2022/08/18 07:30:23;;;;;;;29.55;14.80;;;;;;;19.24;94.82;101075.50;10462038;28;20075;-77
2022/08/18 07:35:58;;;;;;;27.55;15.55;;;;;;;19.34;94.41;101084.22;10442738;28;20041;-78
2022/08/18 07:41:13;;;;;;;29.33;13.85;;;;;;;19.36;94.27;101091.25;10440848;28;20131;-77
2022/08/18 07:46:42;;;;;;;31.90;14.88;;;;;;;19.32;94.40;101088.66;10446392;28;20037;-77
2022/08/18 07:51:58;;;;;;;29.98;14.15;;;;;;;19.43;94.57;101102.66;10411990;28;20128;-77
2022/08/18 07:57:16;;;;;;;33.47;13.52;;;;;;;19.57;94.43;101095.34;10439904;28;20049;-76
2022/08/18 08:02:45;;;;;;;26.40;12.93;;;;;;;19.82;93.92;101096.81;10437073;28;20048;-77
2022/08/18 08:08:02;;;;;;;25.20;12.75;;;;;;;20.12;93.00;101098.06;10419278;28;20412;-77
2022/08/18 08:13:15;;;;;;;26.10;12.90;;;;;;;20.40;92.44;101086.91;10439869;28;20053;-77
2022/08/18 08:19:02;;;;;;;29.75;11.57;;;;;;;20.89;91.32;101093.94;10438263;28;20041;-77
2022/08/18 08:24:22;;;;;;;30.75;12.68;;;;;;;21.23;89.58;101108.31;10437521;28;20041;-76
2022/08/18 08:29:40;;;;;;;23.30;11.13;;;;;;;21.30;88.38;101104.59;10433569;28;20045;-76
2022/08/18 08:34:52;;;;;;;22.48;10.77;;;;;;;21.29;87.77;101103.72;10449986;28;20144;-76
2022/08/18 08:40:01;;;;;;;21.42;10.07;;;;;;;21.36;87.27;101107.13;10448318;28;20509;-75
2022/08/18 08:45:09;;;;;;;19.58;9.38;;;;;;;22.22;86.58;101109.53;10448963;28;20036;-75
2022/08/18 08:50:17;;;;;;;20.38;8.95;;;;;;;22.33;84.61;101109.28;10443074;28;20055;-76
2022/08/18 08:55:24;;;;;;;22.13;8.43;;;;;;;22.20;83.65;101106.00;10443206;28;20080;-76
2022/08/18 09:00:27;;;;;;;16.70;8.45;;;;;;;22.02;83.39;101110.91;10448917;28;20871;-76
2022/08/18 09:05:50;;;;;;;17.15;8.60;;;;;;;22.35;83.35;101113.66;10448082;28;20033;-77
2022/08/18 09:11:19;;;;;;;15.18;7.55;;;;;;;22.94;82.00;101112.03;10409542;28;20072;-76
2022/08/18 09:16:46;;;;;;;18.90;7.05;;;;;;;23.43;80.49;101113.22;10406345;28;20107;-76
2022/08/18 09:21:59;;;;;;;17.92;7.07;;;;;;;23.27;80.15;101112.81;10416709;28;20045;-76
2022/08/18 09:27:01;;;;;;;16.48;7.00;;;;;;;24.13;78.48;101109.19;10410241;28;20045;-76
2022/08/18 09:32:17;;;;;;;18.63;6.30;;;;;;;23.41;77.20;101115.06;10402042;28;20987;-76
2022/08/18 09:37:37;;;;;;;14.77;5.43;;;;;;;23.27;77.28;101117.31;10440401;28;20054;-76
2022/08/18 09:42:53;;;;;;;10.30;4.65;;;;;;;23.98;77.00;101123.09;10431719;28;20037;-76
2022/08/18 09:48:22;;;;;;;11.98;5.10;;;;;;;23.73;75.48;101115.81;10444569;28;20057;-76
2022/08/18 09:54:06;;;;;;;9.73;3.85;;;;;;;23.20;75.59;101121.94;10408411;28;20044;-75
2022/08/18 09:59:08;;;;;;;12.93;4.72;;;;;;;22.85;76.55;101122.94;10396615;28;20120;-77
2022/08/18 10:04:15;;;;;;;11.10;4.65;;;;;;;22.44;77.50;101124.97;10402468;28;20123;-77
2022/08/18 10:09:49;;;;;;;9.90;4.45;;;;;;;22.18;79.57;101127.38;10415769;28;20037;-77
2022/08/18 10:15:21;;;;;;;14.90;4.60;;;;;;;21.96;80.68;101132.38;10436886;28;20600;-77
2022/08/18 10:21:07;;;;;;;11.05;3.85;;;;;;;22.11;80.56;101135.59;10435455;28;20053;-76
2022/08/18 10:26:36;;;;;;;11.15;3.95;;;;;;;22.38;80.66;101132.25;10418676;28;20036;-76
2022/08/18 10:31:53;;;;;;;8.20;3.70;;;;;;;22.59;79.79;101144.13;10409008;28;20100;-76
2022/08/18 10:36:59;;;;;;;9.50;3.53;;;;;;;22.56;79.03;101137.97;10403827;28;20421;-76
2022/08/18 10:42:16;;;;;;;6.68;2.90;;;;;;;22.56;78.11;101140.66;10421883;28;20049;-76
2022/08/18 10:47:24;;;;;;;8.93;3.63;;;;;;;22.55;77.59;101136.25;10438476;28;20110;-75
2022/08/18 10:52:57;;;;;;;11.65;3.53;;;;;;;22.70;77.49;101137.59;10435944;28;20044;-75
2022/08/18 10:58:49;;;;;;;18.80;3.90;;;;;;;23.15;77.45;101139.91;10434904;28;20037;-76
2022/08/18 11:04:26;;;;;;;10.00;3.05;;;;;;;23.69;77.02;101143.59;10423942;28;20498;-75
2022/08/18 11:09:38;;;;;;;12.82;3.60;;;;;;;23.88;74.86;101140.34;10400200;28;20512;-76
2022/08/18 11:15:05;;;;;;;8.55;3.00;;;;;;;23.70;74.16;101150.69;10437138;28;20087;-76
2022/08/18 11:20:30;;;;;;;7.25;2.85;;;;;;;24.02;73.64;101156.84;10432057;28;20053;-75
2022/08/18 11:25:37;;;;;;;11.20;3.58;;;;;;;24.34;72.95;101169.09;10440522;28;20044;-75
2022/08/18 11:30:42;;;;;;;12.45;3.47;;;;;;;24.77;72.31;101163.19;10418702;28;20053;-75
2022/08/18 11:35:58;;;;;;;8.93;3.58;;;;;;;25.41;71.04;101163.47;10433443;28;20045;-75
2022/08/18 11:41:24;;;;;;;8.77;3.47;;;;;;;25.74;69.75;101156.84;10422842;28;20099;-76
2022/08/18 11:46:45;;;;;;;12.75;3.15;;;;;;;25.91;68.28;101153.44;10427713;28;20047;-75
2022/08/18 11:52:13;;;;;;;11.48;3.05;;;;;;;25.87;66.63;101158.09;10430750;28;20124;-76
2022/08/18 11:57:28;;;;;;;9.45;3.35;;;;;;;24.83;66.71;101161.19;10437978;28;20064;-75
2022/08/18 12:02:29;;;;;;;11.23;3.33;;;;;;;24.88;68.88;101161.00;10432779;28;20047;-75
2022/08/18 12:07:35;;;;;;;11.88;3.50;;;;;;;24.51;67.96;101152.44;10450333;28;20057;-74
2022/08/18 12:12:50;;;;;;;11.82;4.07;;;;;;;23.77;69.79;101162.94;10446306;28;20037;-75
2022/08/18 12:17:53;;;;;;;13.13;4.07;;;;;;;23.67;71.61;101153.44;10441918;28;20044;-74
2022/08/18 12:22:56;;;;;;;9.25;3.50;;;;;;;23.93;71.09;101159.78;10443175;28;20332;-75
2022/08/18 12:27:57;;;;;;;11.52;3.55;;;;;;;24.12;71.61;101158.25;10439622;28;20103;-74
2022/08/18 12:32:59;;;;;;;9.70;3.83;;;;;;;24.24;70.52;101145.41;10441835;28;20041;-75
2022/08/18 12:38:22;;;;;;;8.70;3.33;;;;;;;24.14;69.94;101127.00;10442745;28;20052;-74
2022/08/18 12:43:24;;;;;;;10.73;4.10;;;;;;;23.85;70.13;101124.38;10450267;28;20040;-74
2022/08/18 12:48:33;;;;;;;10.60;3.77;;;;;;;23.98;69.96;101125.75;10450753;28;20673;-74
2022/08/18 12:53:34;;;;;;;13.45;3.95;;;;;;;23.96;69.78;101143.63;10446265;28;20044;-74
2022/08/18 12:59:02;;;;;;;8.80;3.50;;;;;;;23.55;70.59;101137.81;10435124;28;20504;-74
2022/08/18 13:04:05;;;;;;;9.10;3.75;;;;;;;23.54;70.92;101146.75;10433320;28;20561;-74
2022/08/18 13:09:14;;;;;;;8.65;3.67;;;;;;;23.74;70.99;101141.66;10446300;28;20057;-74
2022/08/18 13:14:36;;;;;;;11.25;4.00;;;;;;;23.56;70.63;101150.25;10445023;28;20045;-74
2022/08/18 13:19:43;;;;;;;8.23;3.70;;;;;;;23.30;70.71;101154.63;10435486;28;20071;-74
2022/08/18 13:24:45;;;;;;;9.05;3.50;;;;;;;23.38;70.58;101139.22;10440247;28;20053;-74
2022/08/18 13:29:47;;;;;;;11.23;3.25;;;;;;;23.33;70.37;101138.50;10441262;28;20484;-73
2022/08/18 13:34:51;;;;;;;9.77;3.28;;;;;;;24.18;70.48;101134.00;10449268;28;20065;-73
2022/08/18 13:39:58;;;;;;;8.82;3.58;;;;;;;24.95;68.77;101132.19;10444997;28;20077;-75
2022/08/18 13:45:03;;;;;;;10.27;3.28;;;;;;;25.05;66.34;101146.97;10433130;28;20425;-73
2022/08/18 13:50:24;;;;;;;10.70;3.38;;;;;;;24.47;66.47;101157.97;10437314;28;20061;-74
2022/08/18 13:55:30;;;;;;;10.25;3.28;;;;;;;24.10;66.92;101152.09;10434524;28;20116;-73
2022/08/18 14:00:33;;;;;;;7.47;2.70;;;;;;;24.40;66.79;101143.94;10440273;28;20424;-75
2022/08/18 14:05:35;;;;;;;6.55;2.80;;;;;;;24.42;67.35;101147.41;10449715;28;20484;-74
2022/08/18 14:10:56;;;;;;;9.25;3.20;;;;;;;24.75;66.55;101159.69;10443010;28;20132;-74
2022/08/18 14:16:00;;;;;;;9.55;3.17;;;;;;;24.64;66.77;101173.47;10440003;28;20504;-74
2022/08/18 14:31:44;;;;;;;9.98;3.22;;;;;;;24.56;66.23;101172.81;10439306;28;20051;-75
2022/08/18 14:36:47;;;;;;;7.30;2.78;;;;;;;24.47;66.43;101172.25;10451085;28;20514;-74
2022/08/18 14:41:49;;;;;;;8.55;3.30;;;;;;;24.37;66.26;101164.59;10447575;28;20037;-75
2022/08/18 14:46:56;;;;;;;8.23;2.88;;;;;;;24.53;66.17;101160.44;10448502;28;20044;-75
2022/08/18 14:52:00;;;;;;;30.75;10.25;;;;;;;25.05;65.46;101153.19;10444150;28;20452;-75
2022/08/18 14:57:04;;;;;;;11.20;3.22;;;;;;;25.34;64.91;101169.13;10438421;28;20052;-76
2022/08/18 15:02:09;;;;;;;8.38;3.00;;;;;;;25.55;64.59;101173.66;10441950;28;20289;-75
2022/08/18 15:07:14;;;;;;;7.28;3.13;;;;;;;25.54;63.78;101166.56;10448080;28;20052;-76
2022/08/18 15:12:24;;;;;;;10.15;3.03;;;;;;;25.54;63.72;101177.28;10441216;28;20232;-77
2022/08/18 15:17:26;;;;;;;12.60;3.28;;;;;;;25.58;63.63;101168.19;10436384;28;20093;-75
2022/08/18 15:27:50;;;;;;;6.82;2.72;;;;;;;24.96;63.81;101171.44;10440674;28;20056;-73
2022/08/18 15:32:53;;;;;;;7.28;2.80;;;;;;;24.85;64.48;101177.19;10440228;28;20041;-73
2022/08/18 15:37:55;;;;;;;12.40;3.05;;;;;;;24.51;64.48;101175.66;10441436;28;20099;-74
2022/08/18 15:43:02;;;;;;;8.80;3.03;;;;;;;24.18;65.32;101167.88;10449652;28;20037;-74
2022/08/18 15:48:03;;;;;;;11.88;2.85;;;;;;;24.49;64.91;101174.88;10443264;28;20053;-74
2022/08/18 15:53:05;;;;;;;8.95;3.08;;;;;;;24.15;65.39;101168.84;10448276;28;20045;-74
2022/08/18 15:58:11;;;;;;;11.35;2.80;;;;;;;23.48;65.77;101159.38;10452566;28;20044;-74
2022/08/18 16:03:15;;;;;;;6.70;2.50;;;;;;;23.61;66.50;101159.00;10454840;28;20072;-74
2022/08/18 16:08:18;;;;;;;7.90;2.55;;;;;;;23.56;66.34;101155.59;10424383;28;20100;-74
2022/08/18 16:13:20;;;;;;;7.72;2.40;;;;;;;23.11;67.05;101149.78;10437666;28;20662;-73
2022/08/18 16:18:22;;;;;;;7.57;2.80;;;;;;;23.05;67.28;101152.63;10444444;28;20057;-74
2022/08/18 16:23:23;;;;;;;7.50;2.75;;;;;;;23.40;67.10;101141.84;10448994;28;20254;-74
2022/08/18 16:28:25;;;;;;;8.88;4.03;;;;;;;23.52;67.05;101148.59;10445889;28;20057;-72
2022/08/18 16:33:35;;;;;;;5.07;2.10;;;;;;;23.64;66.35;101153.56;10432313;28;20053;-71
2022/08/18 16:38:37;;;;;;;6.93;2.38;;;;;;;23.56;65.77;101152.94;10444829;28;20043;-70
2022/08/18 16:43:43;;;;;;;7.60;2.17;;;;;;;23.49;66.01;101138.88;10447656;28;20049;-71
2022/08/18 16:48:44;;;;;;;9.95;2.60;;;;;;;23.40;65.98;101139.16;10440742;28;20052;-71
2022/08/18 16:53:48;;;;;;;10.27;2.75;;;;;;;23.27;66.05;101147.56;10444207;28;20043;-71
2022/08/18 17:04:13;;;;;;;5.60;2.08;;;;;;;23.02;66.89;101160.72;10465749;28;20055;-71
2022/08/18 17:09:21;;;;;;;5.07;1.60;;;;;;;22.96;67.09;101171.59;10435491;28;20387;-70
2022/08/18 17:20:40;;;;;;;5.07;1.98;;;;;;;22.98;67.16;101175.06;10401823;27;20649;-69
2022/08/18 17:25:42;;;;;;;3.80;1.60;;;;;;;22.70;67.00;101177.63;10389290;28;20068;-70
2022/08/18 17:30:50;;;;;;;8.98;1.90;;;;;;;22.29;67.43;101172.44;10400826;28;20063;-68
2022/08/18 17:35:55;;;;;;;4.05;1.60;;;;;;;22.11;68.24;101186.25;10456436;28;20622;-69
2022/08/18 17:40:57;;;;;;;4.75;1.75;;;;;;;21.89;68.74;101181.44;10459812;28;20041;-69
2022/08/18 17:46:07;;;;;;;5.13;1.80;;;;;;;21.53;69.23;101178.72;10452087;28;20052;-70
2022/08/18 17:51:33;;;;;;;6.15;2.20;;;;;;;21.35;69.76;101180.84;10463156;28;20055;-71
2022/08/18 17:56:44;;;;;;;3.40;1.70;;;;;;;21.17;70.11;101175.91;10450372;28;20056;-70
2022/08/18 18:01:46;;;;;;;6.10;2.00;;;;;;;20.88;70.82;101169.38;10461882;28;20051;-70
2022/08/18 18:06:47;;;;;;;5.55;1.88;;;;;;;20.64;71.83;101171.56;10461792;28;20057;-70
2022/08/18 18:11:50;;;;;;;3.50;1.70;;;;;;;20.56;72.48;101183.25;10463300;28;20534;-68
2022/08/18 18:17:10;;;;;;;5.32;1.80;;;;;;;20.51;72.57;101180.69;10476020;28;20411;-70
2022/08/18 18:22:20;;;;;;;10.00;2.22;;;;;;;20.38;72.48;101174.69;10449479;28;20775;-70
2022/08/18 18:27:40;;;;;;;3.90;1.88;;;;;;;20.38;72.48;101174.69;10477105;28;20045;-69
2022/08/18 18:32:42;;;;;;;3.70;1.85;;;;;;;20.06;73.66;101173.47;10431988;28;20492;-70
2022/08/18 18:38:09;;;;;;;4.60;1.90;;;;;;;19.91;74.05;101163.94;10439696;28;20694;-70
2022/08/18 18:43:34;;;;;;;4.30;2.27;;;;;;;19.79;74.66;101158.84;10451900;28;20075;-70
2022/08/18 18:48:54;;;;;;;3.53;1.70;;;;;;;19.71;74.83;101158.91;10440090;28;20048;-71
2022/08/18 18:54:08;;;;;;;8.27;1.90;;;;;;;19.53;75.48;101170.69;10447015;28;20052;-71
2022/08/18 18:59:24;;;;;;;5.65;1.90;;;;;;;19.38;76.08;101155.84;10446205;28;20128;-70
2022/08/18 19:04:42;;;;;;;6.85;1.75;;;;;;;19.21;76.24;101160.47;10441584;28;20044;-71
2022/08/18 19:10:05;;;;;;;6.50;2.22;;;;;;;-147.53;100.00;57128.34;10446638;28;20037;-70
2022/08/18 19:15:13;;;;;;;6.55;2.10;;;;;;;-147.53;100.00;57128.34;10448146;28;20052;-71
2022/08/18 19:20:19;;;;;;;4.40;2.03;;;;;;;-147.53;100.00;57128.34;10436420;28;20048;-70
2022/08/18 19:25:28;;;;;;;8.27;2.33;;;;;;;-147.53;100.00;57128.34;10423112;28;20128;-70
2022/08/18 19:30:33;;;;;;;7.20;2.28;;;;;;;-147.53;100.00;57128.34;10421821;28;20633;-69
2022/08/18 19:35:54;;;;;;;5.15;2.15;;;;;;;-147.53;100.00;57128.34;10441536;28;20051;-71
2022/08/18 19:40:59;;;;;;;7.45;2.65;;;;;;;-147.53;100.00;57128.34;10430705;28;20045;-70
2022/08/18 19:46:27;;;;;;;6.90;2.42;;;;;;;-147.53;100.00;57128.34;10435924;28;20045;-70
2022/08/18 19:51:34;;;;;;;5.97;2.42;;;;;;;-147.53;100.00;57128.34;10450501;28;20041;-70
2022/08/18 19:56:50;;;;;;;13.85;3.10;;;;;;;-147.53;100.00;57128.34;10450056;28;20194;-71
2022/08/18 20:02:03;;;;;;;5.18;2.45;;;;;;;-147.53;100.00;57128.34;10461184;28;20043;-71
2022/08/18 20:07:24;;;;;;;5.32;2.25;;;;;;;-147.53;100.00;57128.34;10462620;28;20484;-70
2022/08/18 20:12:58;;;;;;;5.90;2.50;;;;;;;-147.53;100.00;57128.34;10442511;28;20043;-70
2022/08/18 20:18:05;;;;;;;5.78;2.45;;;;;;;-147.53;100.00;57128.34;10444792;28;20040;-70
2022/08/18 20:23:30;;;;;;;6.72;2.90;;;;;;;-147.53;100.00;57128.34;10447960;28;20053;-70
2022/08/18 20:28:39;;;;;;;6.55;2.50;;;;;;;-147.53;100.00;57128.34;10454296;28;20132;-70
2022/08/18 20:34:05;;;;;;;5.95;2.53;;;;;;;-147.53;100.00;57128.34;10450791;28;20817;-71
2022/08/18 20:39:32;;;;;;;7.78;2.58;;;;;;;-147.53;100.00;57128.34;10463411;28;20079;-71
2022/08/18 20:44:51;;;;;;;7.15;2.70;;;;;;;-147.53;100.00;57128.34;10456103;28;20523;-70
2022/08/18 20:50:32;;;;;;;6.85;2.60;;;;;;;-147.53;100.00;57128.34;10450330;28;20055;-71
2022/08/18 20:55:36;;;;;;;7.65;2.70;;;;;;;-147.53;100.00;57128.34;10444607;28;20045;-71
2022/08/18 21:00:43;;;;;;;5.85;2.88;;;;;;;-147.53;100.00;57128.34;10451615;28;20656;-71
2022/08/18 21:05:47;;;;;;;9.27;3.10;;;;;;;-147.53;100.00;57128.34;10453802;28;20561;-70
2022/08/18 21:11:06;;;;;;;9.15;2.83;;;;;;;-147.53;100.00;57128.34;10432286;28;20056;-70
2022/08/18 21:16:21;;;;;;;8.52;2.92;;;;;;;-147.53;100.00;57128.34;10451141;28;20064;-70
2022/08/18 21:22:00;;;;;;;7.78;3.15;;;;;;;-147.53;100.00;57128.34;10450423;28;20052;-71
2022/08/18 21:27:19;;;;;;;8.82;3.17;;;;;;;-147.53;100.00;57128.34;10444671;28;20041;-70
2022/08/18 21:32:30;;;;;;;7.47;3.03;;;;;;;-147.53;100.00;57128.34;10458854;28;20047;-71
2022/08/18 21:37:35;;;;;;;5.30;2.63;;;;;;;-147.53;100.00;57128.34;10446959;28;20048;-71
2022/08/18 21:42:44;;;;;;;8.00;2.83;;;;;;;-147.53;100.00;57128.34;10445438;28;20048;-71
2022/08/18 21:47:50;;;;;;;8.52;3.45;;;;;;;-147.53;100.00;57128.34;10460000;28;20115;-71
2022/08/18 21:52:55;;;;;;;7.95;3.67;;;;;;;-147.53;100.00;57128.34;10455489;28;20055;-71
2022/08/18 21:58:05;;;;;;;8.70;3.45;;;;;;;-147.53;100.00;57128.34;10439851;28;20045;-71
2022/08/18 22:03:26;;;;;;;7.45;3.40;;;;;;;-147.53;100.00;57128.34;10455772;28;20132;-70
2022/08/18 22:08:32;;;;;;;9.40;3.60;;;;;;;-147.53;100.00;57128.34;10461766;28;20051;-70
2022/08/18 22:13:57;;;;;;;7.10;4.03;;;;;;;-147.53;100.00;57128.34;10466648;28;20532;-71
2022/08/18 22:19:21;;;;;;;9.18;3.70;;;;;;;-147.53;100.00;57128.34;10449836;28;20121;-71
2022/08/18 22:24:33;;;;;;;8.50;4.13;;;;;;;-147.53;100.00;57128.34;10449282;28;20048;-71
2022/08/18 22:29:45;;;;;;;8.88;4.18;;;;;;;-147.53;100.00;57128.34;10447997;28;20047;-70
2022/08/18 22:34:52;;;;;;;11.23;3.80;;;;;;;-147.53;100.00;57128.34;10467340;28;20045;-71
2022/08/18 22:39:58;;;;;;;7.43;4.35;;;;;;;-147.53;100.00;57128.34;10457960;28;20041;-71
2022/08/18 22:45:01;;;;;;;8.18;4.18;;;;;;;-147.53;100.00;57128.34;10445755;28;20037;-70
2022/08/18 22:50:06;;;;;;;11.02;4.43;;;;;;;-147.53;100.00;57128.34;10455859;28;20052;-71
2022/08/18 22:55:10;;;;;;;7.65;4.10;;;;;;;-147.53;100.00;57128.34;10451618;28;20048;-71
2022/08/18 23:00:16;;;;;;;12.57;5.40;;;;;;;-147.53;100.00;57128.34;10460235;28;20051;-70
2022/08/18 23:05:18;;;;;;;11.63;6.20;;;;;;;-147.53;100.00;57128.34;10454399;28;20554;-71
2022/08/18 23:10:20;;;;;;;16.25;8.00;;;;;;;-147.53;100.00;57128.34;10456266;28;20037;-70
2022/08/18 23:15:40;;;;;;;11.80;7.32;;;;;;;-147.53;100.00;57128.34;10454925;28;20056;-71
2022/08/18 23:20:42;;;;;;;18.60;7.95;;;;;;;-147.53;100.00;57128.34;10447383;28;20045;-71
2022/08/18 23:25:44;;;;;;;13.55;7.53;;;;;;;-147.53;100.00;57128.34;10449892;28;20075;-71
2022/08/18 23:30:48;;;;;;;11.95;7.15;;;;;;;-147.53;100.00;57128.34;10448312;28;20526;-71
2022/08/18 23:35:51;;;;;;;12.60;7.10;;;;;;;-147.53;100.00;57128.34;10460648;28;20056;-71
2022/08/18 23:40:52;;;;;;;11.80;6.22;;;;;;;-147.53;100.00;57128.34;10460777;28;20442;-71
2022/08/18 23:45:56;;;;;;;11.50;5.38;;;;;;;-147.53;100.00;57128.34;10449411;28;20575;-71
2022/08/18 23:51:01;;;;;;;11.02;5.88;;;;;;;-147.53;100.00;57128.34;10458756;28;20802;-72
2022/08/18 23:56:04;;;;;;;13.38;6.70;;;;;;;-147.53;100.00;57128.34;10458032;28;20037;-71
